Butler, WI (53007)

11:34 PM CST on January 30, 2015 (GMT -0600)
Hickory Knoll | Change Station
CLOSE
Current Station
Personal Weather Station
Location: Brookfield, WI
Elevation: 778 ft
Nearby Weather Stations

Elev 778 ft 43.10 °N, 88.10 °W | Updated 4 seconds ago

Clear
Clear
19.2 °F
Feels Like 15 °F
N
3.1
Wind Variable Wind from WNW
Gusts 4.5 mph

Today
High -- | Low -- °F
--% Chance of Precip.
Yesterday
High -- | Low -- °F
Precip. -- in
7:09 AM 5:01 PM
Waxing Gibbous, 87% visible
Pressure 30.31 in
Visibility 10.0 miles
Clouds Clear
Windchill 15 °F
Dew Point 4 °F
Humidity 51%
Rainfall 0.00 in
Snow Depth Not available.
UV 0 out of 12
Pollen .10 out of 12
Air Quality Not available.
Flu Activity Not available.
METAR KMWC 310515Z AUTO 22008KT 10SM CLR M07/M11 A3031 RMK AO2

More Conditions Fewer Conditions

Pressure 30.31 in
Visibility 10.0 miles
Clouds Clear
Windchill 15 °F
Dew Point 4 °F
Humidity 51%
Rainfall 0.00 in
Snow Depth Not available.
UV 0 out of 12
Pollen .10 out of 12
Air Quality Not available.
Flu Activity Not available.
METAR KMWC 310515Z AUTO 22008KT 10SM CLR M07/M11 A3031 RMK AO2

More Conditions Fewer Conditions

10-Day Weather Forecast

Almanac

Astronomy

Jan. 30, 2015 Rise Set
Actual Time
Civil Twilight
Nautical Twilight
Astronomical Twilight
Moon
Length of Visible Light
Length of Day
Tomorrow will be .
, % of the Moon is Illuminated

Today's Extremes

State Highs State Lows

Community

WunderPhotos

Upload Photos

1,792,005 photos uploaded!

WunderBlogs® & News

Nearby

Air Quality

  Air Quality AQ Index Pollutant
Not available.

Snow Depth

Station Depth Elevation

Earthquake Activity

City Distance Mag. Time & Date
Minimum magnitude displayed is 2.5.

Coastal Water Temperatures

Place Temperature

Nearby Weather Stations